createdAt,value
2019-02-27T00:00:29.066Z,73.10
2019-02-27T00:02:57.793Z,73.60
2019-02-27T00:05:26.269Z,73.70
2019-02-27T00:07:55.012Z,73.70
2019-02-27T00:10:23.489Z,73.90
2019-02-27T00:12:52.574Z,74.00
2019-02-27T00:15:21.282Z,74.60
2019-02-27T00:17:51.499Z,74.80
2019-02-27T00:20:19.952Z,74.80
2019-02-27T00:22:50.668Z,74.70
2019-02-27T00:25:18.990Z,75.20
2019-02-27T00:27:49.101Z,75.00
2019-02-27T00:30:17.710Z,75.40
2019-02-27T00:32:48.785Z,75.60
2019-02-27T00:35:16.560Z,75.70
2019-02-27T00:37:44.995Z,75.60
2019-02-27T00:40:13.560Z,75.70
2019-02-27T00:42:42.016Z,75.70
2019-02-27T00:45:11.501Z,76.10
2019-02-27T00:47:39.944Z,76.30
2019-02-27T00:50:09.719Z,76.00
2019-02-27T00:52:38.237Z,76.20
2019-02-27T00:55:07.862Z,76.50
2019-02-27T00:57:36.339Z,76.70
2019-02-27T01:00:07.868Z,77.20
2019-02-27T01:02:36.347Z,77.70
2019-02-27T01:05:25.665Z,78.10
2019-02-27T01:07:54.709Z,78.50
2019-02-27T01:10:23.501Z,79.30
2019-02-27T01:12:52.283Z,79.80
2019-02-27T01:15:20.732Z,80.40
2019-02-27T01:17:49.269Z,80.60
2019-02-27T01:20:17.738Z,80.70
2019-02-27T01:22:46.178Z,80.80
2019-02-27T01:25:14.705Z,81.00
2019-02-27T01:27:43.212Z,80.90
2019-02-27T01:30:16.553Z,80.70
2019-02-27T01:32:45.042Z,80.90
2019-02-27T01:35:17.910Z,81.00
2019-02-27T01:37:44.414Z,81.40
2019-02-27T01:40:17.241Z,81.70
2019-02-27T01:43:06.285Z,82.00
2019-02-27T01:45:34.194Z,82.00
2019-02-27T01:48:02.646Z,82.00
2019-02-27T01:50:33.114Z,82.30
2019-02-27T01:53:01.602Z,82.80
2019-02-27T01:55:30.223Z,83.00
2019-02-27T01:57:58.634Z,83.20
2019-02-27T02:00:27.156Z,83.10
2019-02-27T02:02:55.687Z,83.20
2019-02-27T02:05:27.161Z,83.30
2019-02-27T02:07:55.509Z,83.50
2019-02-27T02:10:27.990Z,83.90
2019-02-27T02:13:03.199Z,84.10
2019-02-27T02:15:37.663Z,84.30
2019-02-27T02:18:23.969Z,84.40
2019-02-27T02:21:05.578Z,84.20
2019-02-27T02:24:11.972Z,84.40
2019-02-27T02:27:08.908Z,84.70
2019-02-27T02:29:40.454Z,85.20
2019-02-27T02:32:32.663Z,85.50
2019-02-27T02:35:24.834Z,85.60
2019-02-27T02:38:14.029Z,85.80
2019-02-27T02:41:18.490Z,85.60
2019-02-27T02:44:40.222Z,86.10
2019-02-27T02:47:11.743Z,86.40
2019-02-27T02:50:10.366Z,86.60
2019-02-27T02:52:53.196Z,86.80
2019-02-27T02:55:36.903Z,86.80
2019-02-27T02:58:12.335Z,87.30
2019-02-27T03:00:43.903Z,87.30
2019-02-27T03:03:18.235Z,87.20
2019-02-27T03:05:59.675Z,87.10
2019-02-27T03:08:54.902Z,87.10
2019-02-27T03:11:24.031Z,87.00
2019-02-27T03:14:17.560Z,86.80
2019-02-27T03:17:22.863Z,86.70
2019-02-27T03:20:00.468Z,86.50
2019-02-27T03:22:44.179Z,86.70
2019-02-27T03:25:15.702Z,87.00
2019-02-27T03:27:56.064Z,87.40
2019-02-27T03:30:42.694Z,87.50
2019-02-27T03:33:38.112Z,87.80
2019-02-27T03:36:35.966Z,88.00
2019-02-27T03:39:16.002Z,88.00
2019-02-27T03:42:11.826Z,87.90
2019-02-27T03:45:13.502Z,87.70
2019-02-27T03:47:52.235Z,87.70
2019-02-27T03:50:49.425Z,87.90
2019-02-27T03:53:33.804Z,87.90
2019-02-27T03:56:24.528Z,88.00
2019-02-27T03:59:12.445Z,88.00
2019-02-27T04:02:05.769Z,88.10
2019-02-27T04:04:56.186Z,88.30
2019-02-27T04:07:49.909Z,88.60
2019-02-27T04:10:18.365Z,88.40
2019-02-27T04:12:51.395Z,88.30
2019-02-27T04:15:18.155Z,88.90
2019-02-27T04:17:51.694Z,88.30
2019-02-27T04:20:16.661Z,88.30
2019-02-27T04:22:45.082Z,88.40
2019-02-27T04:25:13.564Z,88.50
2019-02-27T04:27:42.038Z,88.20
2019-02-27T04:30:14.694Z,88.30
2019-02-27T04:32:40.849Z,88.50
2019-02-27T04:35:09.261Z,88.70
2019-02-27T04:37:37.720Z,88.60
2019-02-27T04:40:10.861Z,89.50
2019-02-27T04:42:38.142Z,89.50
2019-02-27T04:45:12.009Z,89.50
2019-02-27T04:47:38.962Z,90.20
2019-02-27T04:50:10.944Z,90.60
2019-02-27T04:52:37.831Z,90.90
2019-02-27T04:55:06.567Z,91.30
2019-02-27T04:57:35.008Z,91.60
2019-02-27T05:00:03.886Z,91.60
2019-02-27T05:02:32.328Z,91.50
2019-02-27T05:05:00.818Z,91.30
2019-02-27T05:07:29.268Z,91.40
2019-02-27T05:09:57.702Z,91.40
2019-02-27T05:12:29.044Z,91.40
2019-02-27T05:14:57.501Z,91.30
2019-02-27T05:17:25.928Z,91.50
2019-02-27T05:19:54.399Z,91.80
2019-02-27T05:22:26.447Z,91.90
2019-02-27T05:24:52.977Z,92.00
2019-02-27T05:27:21.420Z,92.10
2019-02-27T05:29:49.838Z,92.30
2019-02-27T05:32:20.587Z,92.40
2019-02-27T05:34:49.826Z,92.40
2019-02-27T05:37:19.004Z,92.30
2019-02-27T05:39:50.920Z,92.30
2019-02-27T05:42:17.579Z,92.50
2019-02-27T05:44:46.067Z,92.60
2019-02-27T05:47:14.598Z,92.60
2019-02-27T05:49:43.181Z,92.80
2019-02-27T05:52:11.849Z,92.50
2019-02-27T05:54:41.813Z,92.50
2019-02-27T05:57:10.275Z,92.50
2019-02-27T05:59:38.738Z,92.50
2019-02-27T06:02:08.712Z,92.50
2019-02-27T06:04:37.479Z,92.50
2019-02-27T06:07:05.929Z,92.60
2019-02-27T06:09:34.359Z,92.60
2019-02-27T06:12:06.643Z,92.70
2019-02-27T06:14:32.945Z,92.80
2019-02-27T06:17:01.366Z,92.80
2019-02-27T06:19:30.620Z,92.70
2019-02-27T06:21:59.966Z,92.60
2019-02-27T06:24:28.424Z,92.40
2019-02-27T06:26:56.880Z,92.40
2019-02-27T06:29:25.310Z,92.30
2019-02-27T06:31:53.744Z,92.20
2019-02-27T06:34:22.289Z,92.20
2019-02-27T06:36:52.419Z,92.20
2019-02-27T06:39:20.847Z,92.20
2019-02-27T06:41:49.740Z,92.10
2019-02-27T06:44:19.163Z,92.10
2019-02-27T06:46:51.113Z,92.20
2019-02-27T06:49:20.648Z,92.10
2019-02-27T06:51:49.110Z,91.70
2019-02-27T06:54:18.462Z,91.30
2019-02-27T06:56:47.418Z,91.20
2019-02-27T06:59:17.909Z,91.20
2019-02-27T07:01:47.490Z,91.10
2019-02-27T07:04:16.219Z,90.90
2019-02-27T07:06:44.903Z,90.90
2019-02-27T07:09:13.316Z,90.90
2019-02-27T07:11:45.253Z,90.90
2019-02-27T07:14:12.007Z,91.00
2019-02-27T07:16:40.465Z,91.00
2019-02-27T07:19:08.958Z,91.00
2019-02-27T07:21:37.405Z,90.90
2019-02-27T07:24:05.918Z,90.80
2019-02-27T07:26:34.402Z,90.80
2019-02-27T07:29:02.874Z,90.70
2019-02-27T07:31:31.341Z,90.60
2019-02-27T07:33:59.775Z,90.50
2019-02-27T07:36:28.218Z,90.40
2019-02-27T07:38:57.527Z,90.20
2019-02-27T07:41:26.696Z,90.10
2019-02-27T07:43:55.119Z,90.10
2019-02-27T07:46:23.606Z,89.80
2019-02-27T07:48:56.273Z,87.70
2019-02-27T07:51:23.346Z,85.10
2019-02-27T07:53:53.795Z,81.50
2019-02-27T07:56:22.492Z,77.30
2019-02-27T07:58:51.005Z,75.50
2019-02-27T08:01:20.950Z,74.70
2019-02-27T08:03:49.595Z,74.00
2019-02-27T08:06:18.058Z,74.80
2019-02-27T08:08:46.494Z,74.30
2019-02-27T08:11:14.934Z,73.80
2019-02-27T08:13:43.386Z,72.70
2019-02-27T08:16:11.883Z,72.00
2019-02-27T08:18:40.368Z,72.20
2019-02-27T08:21:08.853Z,72.20
2019-02-27T08:23:37.465Z,70.80
2019-02-27T08:26:05.898Z,69.00
2019-02-27T08:28:34.360Z,66.50
2019-02-27T08:31:02.792Z,64.50
2019-02-27T08:33:31.206Z,63.20
2019-02-27T08:35:59.655Z,62.90
2019-02-27T08:38:28.110Z,62.90
2019-02-27T08:40:58.258Z,63.10
2019-02-27T08:43:26.761Z,63.80
2019-02-27T08:45:55.278Z,64.30
2019-02-27T08:48:23.704Z,64.90
2019-02-27T08:50:52.170Z,64.70
2019-02-27T08:53:25.862Z,64.20
2019-02-27T08:55:51.393Z,65.40
2019-02-27T08:58:19.952Z,65.70
2019-02-27T09:00:48.479Z,66.30
2019-02-27T09:03:20.178Z,66.80
2019-02-27T09:05:47.841Z,67.20
2019-02-27T09:08:16.327Z,67.60
2019-02-27T09:10:44.805Z,67.40
2019-02-27T09:13:13.295Z,67.10
2019-02-27T09:15:41.874Z,66.90
2019-02-27T09:18:10.306Z,66.80
2019-02-27T09:20:38.745Z,66.70
2019-02-27T09:23:07.651Z,66.30
2019-02-27T09:25:36.222Z,66.10
2019-02-27T09:28:08.809Z,65.50
2019-02-27T09:30:34.930Z,64.90
2019-02-27T09:33:03.451Z,64.10
2019-02-27T09:35:34.590Z,63.00
2019-02-27T09:38:02.260Z,62.50
2019-02-27T09:40:50.793Z,61.70
2019-02-27T09:43:19.317Z,61.20
2019-02-27T09:45:47.844Z,60.60
2019-02-27T09:48:16.318Z,60.00
2019-02-27T09:50:48.349Z,59.90
2019-02-27T09:53:16.354Z,59.70
2019-02-27T09:55:44.822Z,59.10
2019-02-27T09:58:16.012Z,58.50
2019-02-27T10:00:52.048Z,58.30
2019-02-27T10:03:21.513Z,57.60
2019-02-27T10:05:50.435Z,57.00
2019-02-27T10:08:18.990Z,56.40
2019-02-27T10:10:47.482Z,55.80
2019-02-27T10:13:16.086Z,55.40
2019-02-27T10:15:44.625Z,55.30
2019-02-27T10:18:13.131Z,55.80
2019-02-27T10:20:41.642Z,55.40
2019-02-27T10:23:10.071Z,55.20
2019-02-27T10:25:43.237Z,55.50
2019-02-27T10:28:10.614Z,55.40
2019-02-27T10:30:38.987Z,55.20
2019-02-27T10:33:07.476Z,54.70
2019-02-27T10:35:35.939Z,54.70
2019-02-27T10:38:04.546Z,54.30
2019-02-27T10:40:33.278Z,53.90
2019-02-27T10:43:01.709Z,53.60
2019-02-27T10:45:30.230Z,53.30
2019-02-27T10:47:58.676Z,53.00
2019-02-27T10:50:27.118Z,52.90
2019-02-27T10:52:55.568Z,52.30
2019-02-27T10:55:24.130Z,52.60
2019-02-27T10:57:52.614Z,51.50
2019-02-27T11:00:31.939Z,51.00
2019-02-27T11:03:01.596Z,50.40
2019-02-27T11:05:34.664Z,50.00
2019-02-27T11:08:02.404Z,49.60
2019-02-27T11:10:30.981Z,49.60
2019-02-27T11:12:59.610Z,49.40
2019-02-27T11:15:28.072Z,49.10
2019-02-27T11:17:56.733Z,48.70
2019-02-27T11:20:25.499Z,48.00
2019-02-27T11:22:53.952Z,47.40
2019-02-27T11:25:40.465Z,46.80
2019-02-27T11:28:09.063Z,46.00
2019-02-27T11:30:39.293Z,45.10
2019-02-27T11:33:08.062Z,44.80
2019-02-27T11:35:36.586Z,44.60
2019-02-27T11:38:05.378Z,44.40
2019-02-27T11:40:33.867Z,44.00
2019-02-27T11:43:06.299Z,43.40
2019-02-27T11:45:32.671Z,43.10
2019-02-27T11:48:01.197Z,43.00
2019-02-27T11:50:29.754Z,42.80
2019-02-27T11:53:01.528Z,42.90
2019-02-27T11:55:28.413Z,41.80
2019-02-27T11:57:56.948Z,41.20
2019-02-27T12:00:33.810Z,40.90
2019-02-27T12:03:02.388Z,40.90
2019-02-27T12:05:34.023Z,40.20
2019-02-27T12:08:01.089Z,39.80
2019-02-27T12:10:32.759Z,39.40
2019-02-27T12:13:01.731Z,39.30
2019-02-27T12:15:30.678Z,39.90
2019-02-27T12:18:00.585Z,40.90
2019-02-27T12:20:29.554Z,41.10
2019-02-27T12:22:58.089Z,40.50
2019-02-27T12:25:29.164Z,40.50
2019-02-27T12:27:57.643Z,40.50
2019-02-27T12:30:28.620Z,40.00
2019-02-27T12:32:57.284Z,39.60
2019-02-27T12:35:31.695Z,39.00
2019-02-27T12:38:00.215Z,38.70
2019-02-27T12:40:28.813Z,39.60
2019-02-27T12:42:57.359Z,40.30
2019-02-27T12:45:29.703Z,40.10
2019-02-27T12:47:58.186Z,39.70
2019-02-27T12:50:31.402Z,39.60
2019-02-27T12:53:00.201Z,39.60
2019-02-27T12:55:28.813Z,39.70
2019-02-27T12:57:57.329Z,39.70
2019-02-27T13:00:31.174Z,39.30
2019-02-27T13:02:59.626Z,39.70
2019-02-27T13:05:28.861Z,39.40
2019-02-27T13:07:57.550Z,39.30
2019-02-27T13:10:26.966Z,39.00
2019-02-27T13:12:55.946Z,38.90
2019-02-27T13:15:28.474Z,39.00
2019-02-27T13:17:58.043Z,38.70
2019-02-27T13:20:31.327Z,38.50
2019-02-27T13:23:03.956Z,38.00
2019-02-27T13:25:30.337Z,37.70
2019-02-27T13:27:59.165Z,37.70
2019-02-27T13:30:28.425Z,37.70
2019-02-27T13:33:00.709Z,37.40
2019-02-27T13:35:28.606Z,37.40
2019-02-27T13:37:57.669Z,37.20
2019-02-27T13:40:27.538Z,36.70
2019-02-27T13:42:56.142Z,36.20
2019-02-27T13:45:28.580Z,36.00
2019-02-27T13:47:58.974Z,35.80
2019-02-27T13:50:27.410Z,35.60
2019-02-27T13:52:55.843Z,35.60
2019-02-27T13:55:24.938Z,35.20
2019-02-27T13:57:53.393Z,34.90
2019-02-27T14:00:29.441Z,34.30
2019-02-27T14:02:57.922Z,33.90
2019-02-27T14:05:26.564Z,33.80
2019-02-27T14:07:58.537Z,33.80
2019-02-27T14:10:32.684Z,34.10
2019-02-27T14:13:01.127Z,34.30
2019-02-27T14:15:31.335Z,34.20
2019-02-27T14:17:59.956Z,33.90
2019-02-27T14:20:29.173Z,33.90
2019-02-27T14:22:58.202Z,34.10
2019-02-27T14:25:47.562Z,34.20
2019-02-27T14:28:18.362Z,34.30
2019-02-27T14:30:49.242Z,34.00
2019-02-27T14:33:19.446Z,33.80
2019-02-27T14:35:47.886Z,33.30
2019-02-27T14:38:16.298Z,33.30
2019-02-27T14:40:44.910Z,33.30
2019-02-27T14:43:13.374Z,33.30
2019-02-27T14:45:42.016Z,32.70
2019-02-27T14:48:10.489Z,32.80
2019-02-27T14:50:39.103Z,32.80
2019-02-27T14:53:07.568Z,32.80
2019-02-27T14:55:37.446Z,32.60
2019-02-27T14:58:06.905Z,32.80
2019-02-27T15:00:40.868Z,32.10
2019-02-27T15:03:07.705Z,32.20
2019-02-27T15:05:36.970Z,32.10
2019-02-27T15:08:06.383Z,31.70
2019-02-27T15:10:34.892Z,31.30
2019-02-27T15:13:03.301Z,31.80
2019-02-27T15:15:32.701Z,31.50
2019-02-27T15:18:01.379Z,31.40
2019-02-27T15:20:30.578Z,31.40
2019-02-27T15:22:59.114Z,31.90
2019-02-27T15:25:27.922Z,32.20
2019-02-27T15:27:58.875Z,32.20
2019-02-27T15:30:29.494Z,32.50
2019-02-27T15:32:57.902Z,33.00
2019-02-27T15:35:28.319Z,32.80
2019-02-27T15:37:56.741Z,32.30
2019-02-27T15:40:31.193Z,31.00
2019-02-27T15:42:59.674Z,30.00
2019-02-27T15:45:28.953Z,29.80
2019-02-27T15:47:57.581Z,30.00
2019-02-27T15:50:34.203Z,30.90
2019-02-27T15:53:02.647Z,31.40
2019-02-27T15:55:34.279Z,32.20
2019-02-27T15:58:01.467Z,32.60
2019-02-27T16:00:30.276Z,32.20
2019-02-27T16:02:58.720Z,32.30
2019-02-27T16:05:30.507Z,32.40
2019-02-27T16:07:57.345Z,32.70
2019-02-27T16:10:29.132Z,33.20
2019-02-27T16:13:00.939Z,33.50
2019-02-27T16:15:27.877Z,33.90
2019-02-27T16:17:56.409Z,34.80
2019-02-27T16:20:26.080Z,35.90
2019-02-27T16:22:54.507Z,36.40
2019-02-27T16:25:24.175Z,36.70
2019-02-27T16:27:52.856Z,37.10
2019-02-27T16:30:32.334Z,37.60
2019-02-27T16:33:00.324Z,37.90
2019-02-27T16:35:28.925Z,38.30
2019-02-27T16:37:57.929Z,38.60
2019-02-27T16:40:28.671Z,38.90
2019-02-27T16:42:57.217Z,39.60
2019-02-27T16:45:37.101Z,40.50
2019-02-27T16:48:06.235Z,41.20
2019-02-27T16:50:34.778Z,41.60
2019-02-27T16:53:03.176Z,42.30
2019-02-27T16:55:35.702Z,43.10
2019-02-27T16:58:02.139Z,43.70
2019-02-27T17:00:37.218Z,44.00
2019-02-27T17:03:05.829Z,44.10
2019-02-27T17:05:34.368Z,44.00
2019-02-27T17:08:02.950Z,44.20
2019-02-27T17:10:33.987Z,44.80
2019-02-27T17:13:02.705Z,45.20
2019-02-27T17:15:34.587Z,45.60
2019-02-27T17:18:01.668Z,45.90
2019-02-27T17:20:30.289Z,46.60
2019-02-27T17:22:58.805Z,47.20
2019-02-27T17:25:30.021Z,47.70
2019-02-27T17:27:57.586Z,48.10
2019-02-27T17:30:37.779Z,48.70
2019-02-27T17:33:05.313Z,49.20
2019-02-27T17:35:34.418Z,49.50
2019-02-27T17:38:03.227Z,50.00
2019-02-27T17:40:36.502Z,50.60
2019-02-27T17:43:02.217Z,51.10
2019-02-27T17:45:30.684Z,51.30
2019-02-27T17:47:59.149Z,51.80
2019-02-27T17:50:31.382Z,52.40
2019-02-27T17:52:57.840Z,52.90
2019-02-27T17:55:26.331Z,53.00
2019-02-27T17:57:58.594Z,52.80
2019-02-27T18:00:41.161Z,52.40
2019-02-27T18:03:09.795Z,52.30
2019-02-27T18:05:38.379Z,52.60
2019-02-27T18:08:06.886Z,52.60
2019-02-27T18:10:37.589Z,52.10
2019-02-27T18:13:05.720Z,51.80
2019-02-27T18:15:34.290Z,52.10
2019-02-27T18:18:02.783Z,52.70
2019-02-27T18:20:32.161Z,53.00
2019-02-27T18:23:00.932Z,54.10
2019-02-27T18:25:29.441Z,53.10
2019-02-27T18:27:59.552Z,53.00
2019-02-27T18:30:28.202Z,53.30
2019-02-27T18:32:56.722Z,53.90
2019-02-27T18:35:28.797Z,54.50
2019-02-27T18:37:55.586Z,55.00
2019-02-27T18:40:24.168Z,55.20
2019-02-27T18:42:55.603Z,56.40
2019-02-27T18:45:24.989Z,55.80
2019-02-27T18:47:53.458Z,56.40
2019-02-27T18:50:30.854Z,56.60
2019-02-27T18:52:59.331Z,57.00
2019-02-27T18:55:30.733Z,57.60
2019-02-27T18:57:58.090Z,58.20
2019-02-27T19:00:27.961Z,58.70
2019-02-27T19:03:10.326Z,59.00
2019-02-27T19:05:41.792Z,59.20
2019-02-27T19:08:09.145Z,59.40
2019-02-27T19:10:41.375Z,59.30
2019-02-27T19:13:07.822Z,59.40
2019-02-27T19:15:36.804Z,59.90
2019-02-27T19:18:06.555Z,60.40
2019-02-27T19:20:49.373Z,60.50
2019-02-27T19:23:18.547Z,61.10
2019-02-27T19:25:47.524Z,61.60
2019-02-27T19:28:16.065Z,61.90
2019-02-27T19:30:44.637Z,62.00
2019-02-27T19:33:13.176Z,62.00
2019-02-27T19:35:43.275Z,61.20
2019-02-27T19:38:12.966Z,60.00
2019-02-27T19:40:42.339Z,59.50
2019-02-27T19:43:10.878Z,58.80
2019-02-27T19:45:39.412Z,58.30
2019-02-27T19:48:07.953Z,58.20
2019-02-27T19:50:36.574Z,58.10
2019-02-27T19:53:06.902Z,58.10
2019-02-27T19:55:35.851Z,57.80
2019-02-27T19:58:04.479Z,57.80
2019-02-27T20:00:35.172Z,57.90
2019-02-27T20:03:04.210Z,58.10
2019-02-27T20:05:32.803Z,58.50
2019-02-27T20:08:02.517Z,57.90
2019-02-27T20:10:33.218Z,57.80
2019-02-27T20:13:01.844Z,58.10
2019-02-27T20:15:30.936Z,58.30
2019-02-27T20:17:59.617Z,58.00
2019-02-27T20:20:31.132Z,58.40
2019-02-27T20:22:59.752Z,58.70
2019-02-27T20:25:30.103Z,58.70
2019-02-27T20:27:58.972Z,58.70
2019-02-27T20:30:27.722Z,58.80
2019-02-27T20:32:56.284Z,58.90
2019-02-27T20:35:24.758Z,59.00
2019-02-27T20:37:53.488Z,59.40
2019-02-27T20:40:22.122Z,59.90
2019-02-27T20:42:54.851Z,59.70
2019-02-27T20:45:22.219Z,59.70
2019-02-27T20:47:57.691Z,59.90
2019-02-27T20:50:44.230Z,59.70
2019-02-27T20:53:14.092Z,59.10
2019-02-27T20:55:42.669Z,58.50
2019-02-27T20:58:16.114Z,58.30
2019-02-27T21:00:41.475Z,58.20
2019-02-27T21:03:10.035Z,57.80
2019-02-27T21:05:40.854Z,57.30
2019-02-27T21:08:09.118Z,56.90
2019-02-27T21:10:37.568Z,56.80
2019-02-27T21:13:06.161Z,56.30
2019-02-27T21:15:34.812Z,56.00
2019-02-27T21:18:03.457Z,56.30
2019-02-27T21:20:33.197Z,55.90
2019-02-27T21:23:01.900Z,55.60
2019-02-27T21:25:30.375Z,55.30
2019-02-27T21:28:00.417Z,55.20
2019-02-27T21:30:29.364Z,54.70
2019-02-27T21:32:58.104Z,55.90
2019-02-27T21:35:29.784Z,55.80
2019-02-27T21:37:57.189Z,55.90
2019-02-27T21:40:25.825Z,56.30
2019-02-27T21:42:54.266Z,56.70
2019-02-27T21:45:23.559Z,57.80
2019-02-27T21:47:52.959Z,59.00
2019-02-27T21:50:26.044Z,61.20
2019-02-27T21:52:55.617Z,62.50
2019-02-27T21:55:24.599Z,63.80
2019-02-27T21:57:53.160Z,64.70
2019-02-27T22:00:24.295Z,65.30
2019-02-27T22:02:54.681Z,66.10
2019-02-27T22:05:23.266Z,66.60
2019-02-27T22:07:51.802Z,66.40
2019-02-27T22:10:20.672Z,65.60
2019-02-27T22:12:49.386Z,64.80
2019-02-27T22:15:23.859Z,64.10
2019-02-27T22:17:52.351Z,63.30
2019-02-27T22:20:20.882Z,62.90
2019-02-27T22:22:49.290Z,62.90
2019-02-27T22:25:17.848Z,63.30
2019-02-27T22:27:46.713Z,63.60
2019-02-27T22:30:19.232Z,63.60
2019-02-27T22:32:48.688Z,63.80
2019-02-27T22:35:17.306Z,64.20
2019-02-27T22:37:51.289Z,64.70
2019-02-27T22:40:22.684Z,64.70
2019-02-27T22:42:51.101Z,64.40
2019-02-27T22:45:22.498Z,64.50
2019-02-27T22:47:53.851Z,64.40
2019-02-27T22:50:21.750Z,65.10
2019-02-27T22:52:54.121Z,64.40
2019-02-27T22:55:20.562Z,64.60
2019-02-27T22:57:49.061Z,64.60
2019-02-27T23:00:42.987Z,64.20
2019-02-27T23:03:10.232Z,63.70
2019-02-27T23:05:39.098Z,63.90
2019-02-27T23:08:07.866Z,64.50
2019-02-27T23:10:36.358Z,65.30
2019-02-27T23:13:04.952Z,66.30
2019-02-27T23:15:58.072Z,67.90
2019-02-27T23:18:23.196Z,68.10
2019-02-27T23:20:52.534Z,67.70
2019-02-27T23:23:21.820Z,67.30
2019-02-27T23:25:50.315Z,67.30
2019-02-27T23:28:18.892Z,67.10
2019-02-27T23:30:48.008Z,67.30
2019-02-27T23:33:16.907Z,67.80
2019-02-27T23:35:47.397Z,68.00
2019-02-27T23:38:15.576Z,67.90
2019-02-27T23:40:44.094Z,67.90
2019-02-27T23:43:12.570Z,67.20
2019-02-27T23:45:41.380Z,66.50
2019-02-27T23:48:11.156Z,66.00
2019-02-27T23:50:42.620Z,64.80
2019-02-27T23:53:09.943Z,63.80
2019-02-27T23:55:44.144Z,63.40
2019-02-27T23:58:08.739Z,63.10
